Time;durP1;ratioP1;P1;durP2;ratioP2;P2;SDS_P1;SDS_P2;PMS_P1;PMS_P2;Temp;Humidity;BMP_temperature;BMP_pressure;BME280_temperature;BME280_humidity;BME280_pressure;Samples;Min_cycle;Max_cycle;Signal;HPM_P1;HPM_P2
2021/04/11 00:00:43;;;;;;;9.85;8.85;;;11.10;99.90;;;;;;5049022;28;20045;-67
2021/04/11 00:03:20;;;;;;;11.00;9.75;;;11.10;99.90;;;;;;5043091;28;20044;-66
2021/04/11 00:05:48;;;;;;;15.52;9.65;;;11.10;99.90;;;;;;5049845;28;20072;-68
2021/04/11 00:08:16;;;;;;;10.98;9.32;;;11.10;99.90;;;;;;5050175;28;20059;-67
2021/04/11 00:10:48;;;;;;;10.85;9.45;;;11.10;99.90;;;;;;5049882;28;20106;-66
2021/04/11 00:13:19;;;;;;;11.23;9.40;;;11.00;99.90;;;;;;5039331;28;20599;-66
2021/04/11 00:15:49;;;;;;;14.77;9.45;;;11.00;99.90;;;;;;5061776;28;20056;-66
2021/04/11 00:18:16;;;;;;;18.80;12.70;;;11.00;99.90;;;;;;5050069;28;20064;-66
2021/04/11 00:20:43;;;;;;;29.27;19.45;;;11.00;99.90;;;;;;5037477;28;20053;-65
2021/04/11 00:23:10;;;;;;;16.58;11.85;;;11.00;99.90;;;;;;5031243;28;20046;-66
2021/04/11 00:25:50;;;;;;;12.15;9.65;;;11.00;99.90;;;;;;5056558;28;20052;-67
2021/04/11 00:28:18;;;;;;;11.02;9.30;;;10.90;99.90;;;;;;5047291;28;20051;-66
2021/04/11 00:30:46;;;;;;;12.25;9.63;;;11.00;99.90;;;;;;5044433;28;20104;-67
2021/04/11 00:33:27;;;;;;;12.07;9.07;;;10.90;99.90;;;;;;5034980;28;20045;-67
2021/04/11 00:35:55;;;;;;;12.90;9.32;;;10.90;99.90;;;;;;5050262;28;20076;-67
2021/04/11 00:38:23;;;;;;;13.80;10.00;;;10.80;99.90;;;;;;5049914;28;20044;-66
2021/04/11 00:40:51;;;;;;;11.00;8.60;;;10.80;99.90;;;;;;5050219;28;20049;-66
2021/04/11 00:43:20;;;;;;;11.80;9.68;;;10.80;99.90;;;;;;5049030;28;20422;-66
2021/04/11 00:46:02;;;;;;;10.70;9.40;;;10.80;99.90;;;;;;5050272;28;20056;-66
2021/04/11 00:48:31;;;;;;;9.93;8.85;;;10.80;99.90;;;;;;5053732;28;20053;-66
2021/04/11 00:51:03;;;;;;;11.40;9.07;;;10.80;99.90;;;;;;5053872;28;20041;-66
2021/04/11 00:53:31;;;;;;;13.27;9.10;;;10.80;99.90;;;;;;5053714;28;20056;-66
2021/04/11 00:55:58;;;;;;;9.50;8.50;;;10.70;99.90;;;;;;5053847;28;20037;-66
2021/04/11 00:58:28;;;;;;;9.93;8.93;;;10.80;99.90;;;;;;5051465;28;20049;-66
2021/04/11 01:00:56;;;;;;;10.85;9.27;;;10.80;99.90;;;;;;5057181;28;20065;-66
2021/04/11 01:03:27;;;;;;;10.18;9.07;;;10.80;99.90;;;;;;5036884;28;20522;-66
2021/04/11 01:05:55;;;;;;;10.67;9.00;;;10.80;99.90;;;;;;5062673;28;20096;-66
2021/04/11 01:08:28;;;;;;;11.05;9.57;;;10.80;99.90;;;;;;5054179;28;20385;-66
2021/04/11 01:11:15;;;;;;;11.05;9.02;;;10.70;99.90;;;;;;5058847;28;20395;-66
2021/04/11 01:13:47;;;;;;;13.18;9.77;;;10.80;99.90;;;;;;5048707;28;20393;-66
2021/04/11 01:16:16;;;;;;;12.65;9.52;;;10.80;99.90;;;;;;5057933;28;20059;-66
2021/04/11 01:18:43;;;;;;;11.38;10.13;;;10.80;99.90;;;;;;5056030;28;20080;-66
2021/04/11 01:21:36;;;;;;;13.68;9.65;;;10.80;99.90;;;;;;5060935;28;20046;-66
2021/04/11 01:24:19;;;;;;;10.23;9.18;;;10.80;99.90;;;;;;5059682;28;20056;-67
2021/04/11 01:26:54;;;;;;;11.95;9.80;;;10.80;99.90;;;;;;5051434;28;20048;-66
2021/04/11 01:29:22;;;;;;;14.40;9.93;;;10.80;99.90;;;;;;5057164;28;20049;-66
2021/04/11 01:31:51;;;;;;;9.90;8.68;;;10.70;99.90;;;;;;5060484;28;20533;-66
2021/04/11 01:34:19;;;;;;;10.32;9.18;;;10.80;99.90;;;;;;5042116;28;20377;-66
2021/04/11 01:36:52;;;;;;;11.07;9.27;;;10.70;99.90;;;;;;5064812;28;20037;-66
2021/04/11 01:39:26;;;;;;;15.55;10.07;;;10.70;99.90;;;;;;5036121;28;20052;-66
2021/04/11 01:41:54;;;;;;;11.45;9.25;;;10.70;99.90;;;;;;5051372;28;20632;-66
2021/04/11 01:44:26;;;;;;;13.20;9.80;;;10.70;99.90;;;;;;5049380;28;20052;-66
2021/04/11 01:46:54;;;;;;;14.05;10.52;;;10.70;99.90;;;;;;5047591;28;20160;-66
2021/04/11 01:49:24;;;;;;;10.30;9.30;;;10.70;99.90;;;;;;5050465;28;20415;-66
2021/04/11 01:52:00;;;;;;;12.27;9.63;;;10.70;99.90;;;;;;5051038;28;20076;-66
2021/04/11 01:54:32;;;;;;;10.13;8.93;;;10.70;99.90;;;;;;5051845;28;20041;-66
2021/04/11 01:57:21;;;;;;;11.57;9.68;;;10.70;99.90;;;;;;5037928;28;20047;-66
2021/04/11 01:59:50;;;;;;;12.70;9.80;;;10.70;99.90;;;;;;5050900;28;20045;-66
2021/04/11 02:02:19;;;;;;;17.98;10.02;;;10.70;99.90;;;;;;5050171;28;20041;-66
2021/04/11 02:04:49;;;;;;;10.73;9.50;;;10.70;99.90;;;;;;5042811;28;20060;-66
2021/04/11 02:07:17;;;;;;;13.32;9.48;;;10.60;99.90;;;;;;5051583;28;20052;-66
2021/04/11 02:09:51;;;;;;;11.82;9.70;;;10.60;99.90;;;;;;5051699;28;20053;-66
2021/04/11 02:12:34;;;;;;;10.43;9.32;;;10.60;99.90;;;;;;5051938;28;20049;-66
2021/04/11 02:15:20;;;;;;;12.82;10.00;;;10.60;99.90;;;;;;5053956;28;20088;-66
2021/04/11 02:17:48;;;;;;;13.88;10.00;;;10.60;99.90;;;;;;5050194;28;20045;-66
2021/04/11 02:20:16;;;;;;;15.88;10.02;;;10.60;99.90;;;;;;5048615;28;20045;-66
2021/04/11 02:22:46;;;;;;;10.60;9.30;;;10.50;99.90;;;;;;5051723;28;20407;-66
2021/04/11 02:25:19;;;;;;;11.05;9.65;;;10.50;99.90;;;;;;5049291;28;20139;-66
2021/04/11 02:28:00;;;;;;;14.07;9.80;;;10.50;99.90;;;;;;5048924;28;20057;-66
2021/04/11 02:30:31;;;;;;;14.43;10.02;;;10.50;99.90;;;;;;5049755;28;20044;-65
2021/04/11 02:32:58;;;;;;;11.65;9.70;;;10.50;99.90;;;;;;5050554;28;20391;-65
2021/04/11 02:35:28;;;;;;;12.75;9.13;;;10.50;99.90;;;;;;5069057;28;20048;-66
2021/04/11 02:38:01;;;;;;;11.93;9.30;;;10.50;99.90;;;;;;5051833;28;20041;-65
2021/04/11 02:40:38;;;;;;;11.73;9.95;;;10.40;99.90;;;;;;5050892;28;20070;-65
2021/04/11 02:43:13;;;;;;;11.63;9.32;;;10.40;99.90;;;;;;5035473;28;20053;-66
2021/04/11 02:45:44;;;;;;;11.75;9.43;;;10.40;99.90;;;;;;5041736;28;20434;-65
2021/04/11 02:48:14;;;;;;;11.63;10.25;;;10.40;99.90;;;;;;5044131;28;20072;-65
2021/04/11 02:51:07;;;;;;;11.98;9.10;;;10.40;99.90;;;;;;5045043;28;20538;-65
2021/04/11 02:53:42;;;;;;;10.05;9.02;;;10.40;99.90;;;;;;5034010;28;20053;-65
2021/04/11 02:56:17;;;;;;;10.75;9.68;;;10.40;99.90;;;;;;5045408;28;20139;-65
2021/04/11 02:58:48;;;;;;;11.02;9.23;;;10.40;99.90;;;;;;5046323;28;20452;-65
2021/04/11 03:01:26;;;;;;;13.32;9.60;;;10.40;99.90;;;;;;5050242;28;20068;-65
2021/04/11 03:03:55;;;;;;;10.38;9.18;;;10.40;99.90;;;;;;5044853;28;20052;-65
2021/04/11 03:06:27;;;;;;;11.48;9.32;;;10.40;99.90;;;;;;5050410;28;20049;-65
2021/04/11 03:09:00;;;;;;;11.10;9.15;;;10.40;99.90;;;;;;5049913;28;20045;-65
2021/04/11 03:11:39;;;;;;;10.88;9.20;;;10.40;99.90;;;;;;5048894;28;20051;-66
2021/04/11 03:14:13;;;;;;;10.48;9.38;;;10.40;99.90;;;;;;5039124;28;20049;-65
2021/04/11 03:16:44;;;;;;;12.10;9.25;;;10.40;99.90;;;;;;5053175;28;20053;-65
2021/04/11 03:19:19;;;;;;;10.85;9.05;;;10.40;99.90;;;;;;5045280;28;20057;-65
2021/04/11 03:21:48;;;;;;;11.38;9.65;;;10.40;99.90;;;;;;5038086;28;20078;-65
2021/04/11 03:24:18;;;;;;;9.77;8.80;;;10.40;99.90;;;;;;5049712;28;20045;-65
2021/04/11 03:27:14;;;;;;;11.75;9.25;;;10.40;99.90;;;;;;5043676;28;20060;-65
2021/04/11 03:29:49;;;;;;;10.98;9.30;;;10.50;99.90;;;;;;5045354;28;20057;-65
2021/04/11 03:32:30;;;;;;;11.63;9.00;;;10.40;99.90;;;;;;5040928;28;20053;-65
2021/04/11 03:35:03;;;;;;;12.60;9.27;;;10.50;99.90;;;;;;5065981;28;20052;-65
2021/04/11 03:37:31;;;;;;;10.35;9.27;;;10.40;99.90;;;;;;5071133;28;20440;-65
2021/04/11 03:39:59;;;;;;;10.63;9.52;;;10.40;99.90;;;;;;5063135;28;20047;-65
2021/04/11 03:42:34;;;;;;;13.52;9.45;;;10.40;99.90;;;;;;5062231;28;20052;-66
2021/04/11 03:45:02;;;;;;;11.00;9.30;;;10.40;99.90;;;;;;5045616;28;20446;-66
2021/04/11 03:47:42;;;;;;;10.82;9.73;;;10.40;99.90;;;;;;5049020;28;20288;-66
2021/04/11 03:50:20;;;;;;;10.63;9.52;;;10.40;99.90;;;;;;5050124;28;20049;-65
2021/04/11 03:53:09;;;;;;;11.40;9.90;;;10.40;99.90;;;;;;5049082;28;20105;-65
2021/04/11 03:55:43;;;;;;;10.88;9.77;;;10.40;99.90;;;;;;5046920;28;20559;-65
2021/04/11 03:58:34;;;;;;;11.32;10.10;;;10.40;99.90;;;;;;5048097;28;20048;-65
2021/04/11 04:01:18;;;;;;;11.27;9.18;;;10.40;99.90;;;;;;5033835;28;20045;-65
2021/04/11 04:03:48;;;;;;;11.38;9.30;;;10.40;99.90;;;;;;5046024;28;20501;-65
2021/04/11 04:06:55;;;;;;;12.48;10.20;;;10.40;99.90;;;;;;5035916;28;20057;-66
2021/04/11 04:09:22;;;;;;;13.93;10.55;;;10.30;99.90;;;;;;5031221;28;20056;-66
2021/04/11 04:12:09;;;;;;;12.57;10.30;;;10.30;99.90;;;;;;5050762;28;20091;-66
2021/04/11 04:14:52;;;;;;;13.88;10.43;;;10.20;99.90;;;;;;5053010;28;20037;-65
2021/04/11 04:17:19;;;;;;;12.30;10.30;;;10.20;99.90;;;;;;5042868;28;20507;-65
2021/04/11 04:20:01;;;;;;;13.23;10.10;;;10.20;99.90;;;;;;5049689;28;20045;-65
2021/04/11 04:23:02;;;;;;;14.38;10.32;;;10.10;99.90;;;;;;5065545;28;20159;-66
2021/04/11 04:25:51;;;;;;;12.18;10.93;;;10.10;99.90;;;;;;5053253;28;20069;-65
2021/04/11 04:28:30;;;;;;;11.20;10.10;;;10.00;99.90;;;;;;5039857;28;20045;-65
2021/04/11 04:31:02;;;;;;;11.00;10.00;;;10.00;99.90;;;;;;5050343;28;20037;-66
2021/04/11 04:33:42;;;;;;;13.05;9.95;;;9.90;99.90;;;;;;5046348;28;20044;-66
2021/04/11 04:36:17;;;;;;;12.37;10.10;;;9.80;99.90;;;;;;5047040;28;20049;-66
2021/04/11 04:38:59;;;;;;;10.75;9.65;;;9.80;99.90;;;;;;5064784;28;20046;-65
2021/04/11 04:41:46;;;;;;;10.55;9.55;;;9.70;99.90;;;;;;5059613;28;20065;-66
2021/04/11 04:44:40;;;;;;;12.73;9.63;;;9.70;99.90;;;;;;5052400;28;20049;-66
2021/04/11 04:47:22;;;;;;;11.15;9.57;;;9.60;99.90;;;;;;5063620;28;20049;-66
2021/04/11 04:50:30;;;;;;;10.52;9.13;;;9.60;99.90;;;;;;5052421;28;20472;-66
2021/04/11 04:53:17;;;;;;;11.27;9.97;;;9.60;99.90;;;;;;5067509;28;20609;-66
2021/04/11 04:55:48;;;;;;;11.23;9.93;;;9.60;99.90;;;;;;5048429;28;20131;-66
2021/04/11 04:58:25;;;;;;;12.00;10.00;;;9.60;99.90;;;;;;5055101;28;20053;-66
2021/04/11 05:00:57;;;;;;;11.13;9.80;;;9.60;99.90;;;;;;5045974;28;20132;-66
2021/04/11 05:03:38;;;;;;;11.68;9.48;;;9.70;99.90;;;;;;5061791;28;20044;-66
2021/04/11 05:06:31;;;;;;;11.00;9.90;;;9.70;99.90;;;;;;5050591;28;20131;-66
2021/04/11 05:09:21;;;;;;;12.38;10.50;;;9.80;99.90;;;;;;5054476;28;20511;-66
2021/04/11 05:11:59;;;;;;;12.93;10.43;;;9.90;99.90;;;;;;5058346;28;20454;-66
2021/04/11 05:14:37;;;;;;;12.55;11.05;;;10.00;99.90;;;;;;5056999;28;20503;-66
2021/04/11 05:17:13;;;;;;;13.52;11.00;;;10.10;99.90;;;;;;5042768;28;20094;-66
2021/04/11 05:19:48;;;;;;;14.98;11.43;;;10.30;99.90;;;;;;5044826;28;20045;-66
2021/04/11 05:22:31;;;;;;;16.70;11.30;;;10.40;99.90;;;;;;5051872;28;20071;-66
2021/04/11 05:25:16;;;;;;;13.93;11.02;;;10.50;99.90;;;;;;5050868;28;20080;-66
2021/04/11 05:28:12;;;;;;;14.15;12.25;;;10.70;99.90;;;;;;5037427;28;20059;-66
2021/04/11 05:30:51;;;;;;;13.52;10.95;;;10.80;99.90;;;;;;5039836;28;20445;-66
2021/04/11 05:33:21;;;;;;;16.63;11.48;;;10.90;99.90;;;;;;5046710;28;20106;-66
2021/04/11 05:35:52;;;;;;;11.90;10.70;;;11.00;99.90;;;;;;5053956;28;20064;-66
2021/04/11 05:38:49;;;;;;;15.53;12.43;;;11.10;99.90;;;;;;5052506;28;20052;-66
2021/04/11 05:41:24;;;;;;;13.18;11.52;;;11.20;99.90;;;;;;5046389;28;20129;-66
2021/04/11 05:44:03;;;;;;;14.38;11.15;;;11.30;99.90;;;;;;5059690;28;20064;-66
2021/04/11 05:46:34;;;;;;;14.23;11.07;;;11.30;99.90;;;;;;5050615;28;20052;-66
2021/04/11 05:49:16;;;;;;;14.07;11.25;;;11.30;99.90;;;;;;5051420;28;20053;-66
2021/04/11 05:51:46;;;;;;;16.92;12.75;;;11.40;99.90;;;;;;5053596;28;20407;-66
2021/04/11 05:54:24;;;;;;;12.70;11.40;;;11.50;99.90;;;;;;5041549;28;20045;-65
2021/04/11 05:56:58;;;;;;;15.77;11.60;;;11.60;99.90;;;;;;5052503;28;20131;-65
2021/04/11 05:59:57;;;;;;;14.57;10.75;;;11.60;99.90;;;;;;5039114;28;20054;-65
2021/04/11 06:02:39;;;;;;;19.98;10.70;;;11.70;99.90;;;;;;5060109;28;20134;-65
2021/04/11 06:05:15;;;;;;;13.48;10.65;;;11.70;99.90;;;;;;5041443;28;20041;-65
2021/04/11 06:07:46;;;;;;;12.20;10.60;;;11.80;99.90;;;;;;5049469;28;20076;-65
2021/04/11 06:10:40;;;;;;;18.75;14.05;;;11.80;99.90;;;;;;5048086;28;20060;-65
2021/04/11 06:13:14;;;;;;;15.93;12.48;;;12.00;99.90;;;;;;5045169;28;20148;-65
2021/04/11 06:16:03;;;;;;;15.38;11.82;;;12.00;99.90;;;;;;5039304;28;20053;-66
2021/04/11 06:18:30;;;;;;;12.43;10.77;;;12.10;99.90;;;;;;5040232;28;20045;-66
2021/04/11 06:21:02;;;;;;;16.02;11.10;;;12.20;99.90;;;;;;5047125;28;20111;-66
2021/04/11 06:23:37;;;;;;;15.50;11.20;;;12.40;99.90;;;;;;5048693;28;20425;-66
2021/04/11 06:26:27;;;;;;;13.85;11.68;;;12.50;99.90;;;;;;5046758;28;20044;-66
2021/04/11 06:29:05;;;;;;;13.02;11.35;;;12.60;99.90;;;;;;5037352;28;20053;-66
2021/04/11 06:31:42;;;;;;;12.57;11.27;;;12.60;99.90;;;;;;5049424;28;20044;-66
2021/04/11 06:34:19;;;;;;;13.82;11.35;;;12.70;99.90;;;;;;5046448;28;20425;-66
2021/04/11 06:36:50;;;;;;;13.45;11.65;;;12.90;99.90;;;;;;5046931;28;20127;-66
2021/04/11 06:39:27;;;;;;;13.82;11.25;;;13.00;99.90;;;;;;5058592;28;20523;-66
2021/04/11 06:42:24;;;;;;;12.98;11.48;;;13.10;99.90;;;;;;5054066;28;20929;-66
2021/04/11 06:45:14;;;;;;;12.88;10.93;;;13.20;99.90;;;;;;5049959;28;20073;-66
2021/04/11 06:47:59;;;;;;;12.98;10.95;;;13.40;99.90;;;;;;5057364;28;20052;-66
2021/04/11 06:51:04;;;;;;;12.45;11.18;;;13.50;99.90;;;;;;5048250;28;20060;-66
2021/04/11 06:54:17;;;;;;;12.23;10.90;;;13.70;99.90;;;;;;5053105;28;20076;-66
2021/04/11 06:57:16;;;;;;;16.73;11.45;;;13.80;99.90;;;;;;5052562;28;20049;-65
2021/04/11 06:59:42;;;;;;;13.73;11.57;;;13.90;99.90;;;;;;5045476;28;20053;-65
2021/04/11 07:02:47;;;;;;;15.50;11.10;;;14.00;99.90;;;;;;5045753;28;20084;-65
2021/04/11 07:05:29;;;;;;;12.90;10.75;;;14.10;99.90;;;;;;5052684;28;20049;-65
2021/04/11 07:08:17;;;;;;;12.75;11.32;;;14.30;99.90;;;;;;5044708;28;20506;-65
2021/04/11 07:10:53;;;;;;;12.30;11.00;;;14.30;99.90;;;;;;5045869;28;20057;-65
2021/04/11 07:13:59;;;;;;;13.80;10.38;;;14.40;99.90;;;;;;5050764;28;20136;-65
2021/04/11 07:16:51;;;;;;;13.80;10.30;;;14.50;99.90;;;;;;5060236;28;20124;-65
2021/04/11 07:19:43;;;;;;;11.73;10.55;;;14.60;99.90;;;;;;5043997;28;20057;-65
2021/04/11 07:22:40;;;;;;;12.73;10.73;;;14.60;99.90;;;;;;5053666;28;20052;-65
2021/04/11 07:25:35;;;;;;;11.45;10.25;;;14.70;99.90;;;;;;5042500;28;20327;-65
2021/04/11 07:28:37;;;;;;;11.23;10.02;;;14.80;99.90;;;;;;5043576;28;20045;-65
2021/04/11 07:31:35;;;;;;;13.95;10.45;;;14.90;99.90;;;;;;5063857;28;20135;-66
2021/04/11 07:34:05;;;;;;;13.48;10.82;;;15.00;99.90;;;;;;5052315;28;20048;-67
2021/04/11 07:36:44;;;;;;;11.80;10.60;;;15.30;99.90;;;;;;5046535;28;20053;-66
2021/04/11 07:39:29;;;;;;;12.15;10.85;;;15.50;99.90;;;;;;5056574;28;20125;-66
2021/04/11 07:42:05;;;;;;;12.23;10.90;;;15.30;99.90;;;;;;5045109;28;20048;-66
2021/04/11 07:45:00;;;;;;;12.25;11.00;;;15.30;99.90;;;;;;5044280;28;20044;-66
2021/04/11 07:47:40;;;;;;;11.73;10.63;;;15.30;99.90;;;;;;5048047;28;20091;-66
2021/04/11 07:50:28;;;;;;;14.27;10.82;;;15.50;99.90;;;;;;5038059;28;20114;-66
2021/04/11 07:53:31;;;;;;;11.10;10.10;;;15.50;99.90;;;;;;5053435;28;20061;-66
2021/04/11 07:56:35;;;;;;;13.55;9.75;;;15.50;99.90;;;;;;5046015;28;20051;-67
2021/04/11 07:59:14;;;;;;;11.43;10.05;;;15.40;99.90;;;;;;5048607;28;20410;-67
2021/04/11 08:02:00;;;;;;;11.90;10.43;;;15.50;99.90;;;;;;5041317;28;20319;-66
2021/04/11 08:04:51;;;;;;;11.98;10.10;;;15.60;99.90;;;;;;5053742;28;20045;-66
2021/04/11 08:07:24;;;;;;;11.63;10.05;;;15.60;99.90;;;;;;5051427;28;20044;-66
2021/04/11 08:10:00;;;;;;;10.85;9.75;;;15.80;99.90;;;;;;5050925;28;20456;-66
2021/04/11 08:12:59;;;;;;;10.27;9.10;;;15.90;99.90;;;;;;5052313;28;20056;-66
2021/04/11 08:15:30;;;;;;;13.68;9.60;;;16.00;99.90;;;;;;5055859;28;20049;-66
2021/04/11 08:18:13;;;;;;;11.27;10.07;;;16.20;99.90;;;;;;5055005;28;20378;-66
2021/04/11 08:20:56;;;;;;;12.73;10.63;;;16.50;99.90;;;;;;5054946;28;20085;-66
2021/04/11 08:23:44;;;;;;;10.77;9.25;;;16.70;99.90;;;;;;5047131;28;20115;-65
2021/04/11 08:26:28;;;;;;;11.25;9.40;;;17.00;99.90;;;;;;5050655;28;20110;-66
2021/04/11 08:29:13;;;;;;;9.90;8.88;;;17.20;99.90;;;;;;5053409;28;20049;-66
2021/04/11 08:31:55;;;;;;;11.35;10.23;;;17.30;99.90;;;;;;5054553;28;20430;-66
2021/04/11 08:34:44;;;;;;;11.38;9.13;;;17.50;99.90;;;;;;5049959;28;20045;-66
2021/04/11 08:37:34;;;;;;;12.70;8.68;;;17.70;99.90;;;;;;5049230;28;20103;-67
2021/04/11 08:40:10;;;;;;;10.10;8.27;;;17.80;99.90;;;;;;5055885;28;20149;-66
2021/04/11 08:42:49;;;;;;;13.93;11.95;;;17.90;99.90;;;;;;5048109;28;20073;-66
2021/04/11 08:45:29;;;;;;;11.52;10.23;;;18.00;99.90;;;;;;5048734;28;20179;-66
2021/04/11 08:48:09;;;;;;;9.27;7.97;;;18.10;99.90;;;;;;5050207;28;20061;-67
2021/04/11 08:50:57;;;;;;;9.35;8.27;;;18.20;99.90;;;;;;5048816;28;20037;-66
2021/04/11 08:53:32;;;;;;;7.80;7.10;;;18.10;99.90;;;;;;5041656;28;20459;-66
2021/04/11 08:56:21;;;;;;;8.70;7.90;;;18.30;99.90;;;;;;5034448;28;20057;-66
2021/04/11 08:59:21;;;;;;;8.50;7.70;;;18.50;99.90;;;;;;5038243;28;20059;-66
2021/04/11 09:01:48;;;;;;;9.35;8.55;;;18.60;99.90;;;;;;5033811;28;20065;-66
2021/04/11 09:04:20;;;;;;;8.68;7.90;;;18.70;99.90;;;;;;5056235;28;20083;-66
2021/04/11 09:06:50;;;;;;;8.63;7.82;;;19.00;99.90;;;;;;5048328;28;20135;-68
2021/04/11 09:09:21;;;;;;;7.20;6.60;;;19.20;99.90;;;;;;5055597;28;20049;-67
2021/04/11 09:12:20;;;;;;;8.07;7.38;;;19.10;99.90;;;;;;5061225;28;20513;-67
2021/04/11 09:14:47;;;;;;;14.00;11.57;;;19.20;99.90;;;;;;5056917;28;20249;-68
2021/04/11 09:17:35;;;;;;;8.68;7.13;;;19.10;99.90;;;;;;5057902;28;20052;-66
2021/04/11 09:20:10;;;;;;;7.25;6.60;;;18.80;99.90;;;;;;5053481;28;20053;-68
2021/04/11 09:22:59;;;;;;;7.25;6.55;;;18.60;99.90;;;;;;5055019;28;20071;-67
2021/04/11 09:25:30;;;;;;;7.15;6.13;;;18.50;99.90;;;;;;5046506;28;20089;-68
2021/04/11 09:28:24;;;;;;;7.65;6.93;;;18.50;99.90;;;;;;5050899;28;20057;-66
2021/04/11 09:31:22;;;;;;;7.70;6.88;;;18.60;99.90;;;;;;5042380;28;20103;-67
2021/04/11 09:34:09;;;;;;;6.80;6.20;;;18.50;99.90;;;;;;5045050;28;20121;-67
2021/04/11 09:36:59;;;;;;;7.43;6.78;;;18.50;99.60;;;;;;5031491;28;20048;-66
2021/04/11 09:39:48;;;;;;;7.00;6.30;;;18.70;99.70;;;;;;5060646;28;20057;-67
2021/04/11 09:42:34;;;;;;;6.85;6.28;;;18.70;99.30;;;;;;5050759;28;20072;-67
2021/04/11 09:45:23;;;;;;;8.82;7.68;;;18.80;99.00;;;;;;5036471;28;20064;-66
2021/04/11 09:48:04;;;;;;;7.45;6.85;;;18.60;99.40;;;;;;5050265;28;20099;-68
2021/04/11 09:50:47;;;;;;;;;;;18.70;99.50;;;;;;5050296;28;20079;-67
2021/04/11 09:53:38;;;;;;;7.75;7.05;;;18.80;99.80;;;;;;5045173;28;19925;-67
2021/04/11 09:56:42;;;;;;;10.30;6.70;;;19.10;99.20;;;;;;5053388;28;20052;-66
2021/04/11 09:59:18;;;;;;;7.55;6.68;;;19.30;98.80;;;;;;5050366;28;20084;-67
2021/04/11 10:02:09;;;;;;;8.45;7.07;;;19.60;98.30;;;;;;5049732;28;20048;-68
2021/04/11 10:04:43;;;;;;;8.32;7.47;;;19.90;98.30;;;;;;5052106;28;20510;-67
2021/04/11 10:07:34;;;;;;;27.65;15.00;;;20.00;96.90;;;;;;5052401;28;20519;-67
2021/04/11 10:10:35;;;;;;;8.02;6.57;;;20.10;96.60;;;;;;5046130;28;20107;-68
2021/04/11 10:13:11;;;;;;;9.18;8.13;;;20.00;96.70;;;;;;5051120;28;20658;-67
2021/04/11 10:16:16;;;;;;;7.07;6.47;;;20.30;96.30;;;;;;5051584;28;20067;-67
2021/04/11 10:18:48;;;;;;;6.88;6.18;;;20.60;95.40;;;;;;5038596;28;20153;-67
2021/04/11 10:21:35;;;;;;;7.00;6.40;;;20.70;94.90;;;;;;5051440;28;20216;-67
2021/04/11 10:24:11;;;;;;;7.10;6.40;;;20.90;94.40;;;;;;5053049;28;20068;-67
2021/04/11 10:26:46;;;;;;;7.60;6.90;;;21.30;94.20;;;;;;5041090;28;20056;-68
2021/04/11 10:29:20;;;;;;;8.05;7.35;;;21.60;94.00;;;;;;5050833;28;20391;-67
2021/04/11 10:31:59;;;;;;;7.45;6.85;;;21.90;93.00;;;;;;5052487;28;20057;-67
2021/04/11 10:34:44;;;;;;;7.80;7.10;;;22.20;92.30;;;;;;5063862;28;20087;-66
2021/04/11 10:37:33;;;;;;;7.82;7.10;;;22.30;92.00;;;;;;5057993;28;20501;-67
2021/04/11 10:40:23;;;;;;;8.50;7.13;;;22.40;91.70;;;;;;5072110;28;20140;-65
2021/04/11 10:43:12;;;;;;;7.88;7.22;;;22.00;91.20;;;;;;5072339;28;20052;-66
2021/04/11 10:45:44;;;;;;;7.00;6.50;;;21.40;92.00;;;;;;5060425;28;20041;-66
2021/04/11 10:48:48;;;;;;;8.00;7.28;;;21.20;92.10;;;;;;5044049;28;20140;-65
2021/04/11 10:51:27;;;;;;;8.50;7.10;;;21.10;92.10;;;;;;5046958;28;20118;-65
2021/04/11 10:54:31;;;;;;;8.48;6.97;;;21.40;92.00;;;;;;5040559;28;20057;-65
2021/04/11 10:57:11;;;;;;;8.05;7.45;;;21.40;91.70;;;;;;5046838;28;20216;-66
2021/04/11 11:00:03;;;;;;;7.15;6.55;;;21.90;91.60;;;;;;5052322;28;20499;-66
2021/04/11 11:02:42;;;;;;;7.78;7.18;;;22.60;90.50;;;;;;5051712;28;20072;-66
2021/04/11 11:05:20;;;;;;;10.20;9.15;;;22.80;89.80;;;;;;5045167;28;20132;-66
2021/04/11 11:08:05;;;;;;;7.72;6.53;;;22.80;89.40;;;;;;5039450;28;20144;-67
2021/04/11 11:11:21;;;;;;;7.20;6.60;;;22.80;87.60;;;;;;5043029;28;20057;-66
2021/04/11 11:14:18;;;;;;;7.40;6.70;;;22.50;87.90;;;;;;5051026;28;20068;-65
2021/04/11 11:17:29;;;;;;;7.68;6.97;;;22.20;87.20;;;;;;5045841;28;20132;-66
2021/04/11 11:20:03;;;;;;;7.32;6.60;;;21.90;87.50;;;;;;5048612;28;20055;-66
2021/04/11 11:23:23;;;;;;;8.23;6.97;;;21.80;87.70;;;;;;5041254;28;20049;-66
2021/04/11 11:26:08;;;;;;;7.57;6.85;;;21.60;87.50;;;;;;5072670;28;20044;-67
2021/04/11 11:28:52;;;;;;;7.32;6.53;;;21.50;87.70;;;;;;5088648;28;20415;-67
2021/04/11 11:31:25;;;;;;;7.40;6.90;;;21.40;88.10;;;;;;5088549;28;20071;-67
2021/04/11 11:34:08;;;;;;;9.73;7.00;;;21.30;88.80;;;;;;5087638;28;20556;-67
2021/04/11 11:37:02;;;;;;;7.50;6.90;;;21.60;88.20;;;;;;5088740;28;20481;-67
2021/04/11 11:39:42;;;;;;;8.63;7.30;;;22.00;88.30;;;;;;5063689;28;20051;-68
2021/04/11 11:42:18;;;;;;;7.75;7.05;;;21.90;87.20;;;;;;5087447;28;20040;-66
2021/04/11 11:45:26;;;;;;;8.00;7.30;;;21.60;88.00;;;;;;5081288;28;20043;-67
2021/04/11 11:48:36;;;;;;;7.80;7.10;;;21.90;89.00;;;;;;5086785;28;20052;-67
2021/04/11 11:51:24;;;;;;;8.05;7.30;;;22.70;86.40;;;;;;5087993;28;20578;-67
2021/04/11 11:54:09;;;;;;;7.72;7.13;;;23.50;85.40;;;;;;5088957;28;20502;-67
2021/04/11 11:56:42;;;;;;;8.52;7.55;;;24.00;83.30;;;;;;5088351;28;20059;-67
2021/04/11 11:59:27;;;;;;;7.85;7.05;;;24.00;82.60;;;;;;5073797;28;20056;-67
2021/04/11 12:02:03;;;;;;;8.40;7.70;;;24.40;80.80;;;;;;5044613;28;20373;-66
2021/04/11 12:05:05;;;;;;;8.30;7.65;;;24.90;79.70;;;;;;5049686;28;20079;-66
2021/04/11 12:07:43;;;;;;;;;;;24.60;79.10;;;;;;5051221;28;20052;-67
2021/04/11 12:10:28;;;;;;;8.20;7.43;;;24.00;79.40;;;;;;5050834;28;19921;-66
2021/04/11 12:13:45;;;;;;;7.78;7.03;;;24.00;80.50;;;;;;5044757;28;20053;-66
2021/04/11 12:16:42;;;;;;;7.60;7.00;;;24.10;78.90;;;;;;5057593;28;20049;-66
2021/04/11 12:19:37;;;;;;;7.68;6.97;;;24.20;79.10;;;;;;5050808;28;20049;-69
2021/04/11 12:22:19;;;;;;;7.55;6.80;;;24.30;79.40;;;;;;5050762;28;20399;-66
2021/04/11 12:25:20;;;;;;;7.75;7.15;;;24.40;78.70;;;;;;5051059;28;20061;-66
2021/04/11 12:27:48;;;;;;;8.05;7.45;;;24.50;78.00;;;;;;5052071;28;20492;-65
2021/04/11 12:30:32;;;;;;;7.15;6.53;;;24.40;77.40;;;;;;5039185;28;20076;-66
2021/04/11 12:33:24;;;;;;;7.13;6.53;;;24.10;77.80;;;;;;5035914;28;20512;-66
2021/04/11 12:35:53;;;;;;;7.30;6.78;;;23.90;77.10;;;;;;5061113;28;20052;-66
2021/04/11 12:38:41;;;;;;;7.78;7.07;;;23.80;76.90;;;;;;5050564;28;20052;-66
2021/04/11 12:41:22;;;;;;;8.68;7.65;;;23.70;77.10;;;;;;5043107;28;20118;-66
2021/04/11 12:44:12;;;;;;;8.38;7.57;;;23.60;77.80;;;;;;5049043;28;20076;-68
2021/04/11 12:46:52;;;;;;;8.07;7.40;;;23.50;79.00;;;;;;5048713;28;20053;-67
2021/04/11 12:49:49;;;;;;;7.35;6.70;;;24.80;75.60;;;;;;5061043;28;20041;-66
2021/04/11 12:52:41;;;;;;;7.20;6.50;;;25.40;73.10;;;;;;5052808;28;20123;-67
2021/04/11 12:55:19;;;;;;;7.60;6.88;;;26.00;71.80;;;;;;5056910;28;20125;-68
2021/04/11 12:58:19;;;;;;;7.50;7.00;;;25.90;71.10;;;;;;5058426;28;20060;-68
2021/04/11 13:01:07;;;;;;;7.55;6.88;;;25.30;72.10;;;;;;5050264;28;20049;-66
2021/04/11 13:03:48;;;;;;;7.00;6.35;;;25.20;72.50;;;;;;5046910;28;20060;-66
2021/04/11 13:06:53;;;;;;;7.55;6.80;;;25.00;73.60;;;;;;5063582;28;20048;-67
2021/04/11 13:09:19;;;;;;;7.03;6.43;;;25.10;72.40;;;;;;5066781;28;20501;-67
2021/04/11 13:11:52;;;;;;;7.13;6.60;;;25.10;71.60;;;;;;5061274;28;20087;-67
2021/04/11 13:14:30;;;;;;;6.95;6.40;;;24.80;71.20;;;;;;5064476;28;20052;-66
2021/04/11 13:17:03;;;;;;;11.02;10.02;;;24.80;71.30;;;;;;5061588;28;20049;-66
2021/04/11 13:19:41;;;;;;;7.70;7.10;;;24.50;71.80;;;;;;5067246;28;20049;-67
2021/04/11 13:22:24;;;;;;;7.75;7.00;;;24.10;73.40;;;;;;5062736;28;20048;-67
2021/04/11 13:25:03;;;;;;;7.82;7.13;;;24.40;73.10;;;;;;5052233;28;20497;-66
2021/04/11 13:27:39;;;;;;;7.00;6.40;;;24.70;72.70;;;;;;5049670;28;20443;-65
2021/04/11 13:30:38;;;;;;;7.80;7.20;;;24.90;71.30;;;;;;5059745;28;20036;-66
2021/04/11 13:33:18;;;;;;;7.60;6.90;;;25.40;71.10;;;;;;5037633;28;20091;-66
2021/04/11 13:36:01;;;;;;;7.57;6.90;;;27.20;68.90;;;;;;5054154;28;20049;-68
2021/04/11 13:38:41;;;;;;;7.28;6.65;;;28.50;67.30;;;;;;5051236;28;20036;-67
2021/04/11 13:41:50;;;;;;;7.38;6.78;;;28.40;65.70;;;;;;5054282;28;20057;-66
2021/04/11 13:44:25;;;;;;;8.02;7.28;;;27.70;65.80;;;;;;5052892;28;20057;-68
2021/04/11 13:47:27;;;;;;;7.53;6.93;;;26.90;67.00;;;;;;5035348;28;20041;-67
2021/04/11 13:49:59;;;;;;;;;;;26.10;68.00;;;;;;5062001;28;20072;-69